Al Amerat — 3FRY4 — position and weather

sailwx.info

Track history (hours):
 
Tides and Currents Weather Stations Pressure Air Temp Water Temp Dewpoint Dewpoint Depression Visibility Wind Speed Wind Dir Waves Ship Positions

Al Amerat

Last reported at 2018-May-26 23:16 UTC. Time now 2018-Jun-21 23:54 UTC.
Position N 01°27' E 103°12'.
Warning: this ship's position is 26 days out of date.

Length 183 m; draft 7.7 m.

Type: Ship. MMSI: 370706000.

Date/timePositionNaut miles runAvg speedWind from/ knotsBaromVisibWave heightAir tempDewpointWater temp
2018-May-26 23:16N 01°27' E 103°12'413.5
2018-May-26 22:56N 01°24' E 103°15'613.8
2018-May-26 22:30N 01°20' E 103°20'714.3
2018-May-26 21:59N 01°15' E 103°25'714.1
2018-May-26 21:30N 01°12' E 103°31'612.5
2018-May-26 21:00N 01°11' E 103°37'510.2
2018-May-26 20:30N 01°09' E 103°42'510.7
2018-May-26 20:00N 01°10' E 103°47'511.0
2018-May-26 19:30N 01°12' E 103°52'510.4
2018-May-26 19:00N 01°14' E 103°57'510.9
2018-May-26 18:30N 01°16' E 104°02'612.5
2018-May-26 18:00N 01°16' E 104°09'612.2
2018-May-26 17:30N 01°17' E 104°15'611.9
2018-May-26 17:00N 01°19' E 104°20'713.1
2018-May-26 16:30N 01°24' E 104°25'712.7
2018-May-26 15:58N 01°28' E 104°30'  
2018-May-21 12:18N 01°13' E 103°57'311.5
2018-May-21 12:01N 01°12' E 103°54'5 8.8
2018-May-21 11:30N 01°11' E 103°49'2 5.0
2018-May-21 11:00N 01°13' E 103°48'0 0.3
2018-May-21 10:05N 01°14' E 103°48'0 0.0
2018-May-21 09:59N 01°14' E 103°48'0 0.1
2018-May-21 09:29N 01°13' E 103°48'0 0.1
2018-May-21 08:59N 01°13' E 103°48'0 0.1
2018-May-21 08:29N 01°13' E 103°48'0 0.0
2018-May-21 07:59N 01°13' E 103°48'0 0.0
2018-May-21 07:26N 01°13' E 103°48'0 0.2
2018-May-21 06:59N 01°13' E 103°48'0 0.0
2018-May-21 06:23N 01°13' E 103°48'0 0.2
2018-May-21 05:59N 01°13' E 103°48'0 0.1
2018-May-21 05:29N 01°13' E 103°48'0 0.0
2018-May-21 04:53N 01°13' E 103°48'0 0.0
2018-May-21 04:29N 01°13' E 103°48'0 0.0
2018-May-21 03:59N 01°13' E 103°48'0 0.0
2018-May-21 03:29N 01°13' E 103°48'0 0.1
2018-May-21 02:59N 01°13' E 103°48'0 0.0
2018-May-21 02:29N 01°13' E 103°48'0 0.1
2018-May-21 01:57N 01°13' E 103°48'0 0.3
2018-May-21 01:30N 01°13' E 103°48'2 3.4
2018-May-21 01:00N 01°14' E 103°47'510.0
2018-May-21 00:31N 01°13' E 103°42'611.2
2018-May-20 23:59N 01°13' E 103°36'3 5.9
2018-May-20 23:30N 01°11' E 103°33'3 6.2
2018-May-20 23:00N 01°11' E 103°30'5 9.9
2018-May-20 22:30N 01°11' E 103°26'510.3
2018-May-20 22:00N 01°14' E 103°21'5 9.7
2018-May-20 21:30N 01°17' E 103°18'5 9.2
2018-May-20 20:59N 01°20' E 103°14'4 8.2
2018-May-20 20:29N 01°23' E 103°11'  
Track history (hours):
 
Tides and Currents Weather Stations Pressure Air Temp Water Temp Dewpoint Dewpoint Depression Visibility Wind Speed Wind Dir Waves Ship Positions

Al Amerat

Last reported at 2018-May-26 23:16 UTC. Time now 2018-Jun-21 23:54 UTC.
Position N 01°27' E 103°12'.
Warning: this ship's position is 26 days out of date.

Length 183 m; draft 7.7 m.

Type: Ship. MMSI: 370706000.

Date/timePositionNaut miles runAvg speedWind from/ knotsBaromVisibWave heightAir tempDewpointWater temp
2018-May-26 23:16N 01°27' E 103°12'413.5
2018-May-26 22:56N 01°24' E 103°15'613.8
2018-May-26 22:30N 01°20' E 103°20'714.3
2018-May-26 21:59N 01°15' E 103°25'714.1
2018-May-26 21:30N 01°12' E 103°31'612.5
2018-May-26 21:00N 01°11' E 103°37'510.2
2018-May-26 20:30N 01°09' E 103°42'510.7
2018-May-26 20:00N 01°10' E 103°47'511.0
2018-May-26 19:30N 01°12' E 103°52'510.4
2018-May-26 19:00N 01°14' E 103°57'510.9
2018-May-26 18:30N 01°16' E 104°02'612.5
2018-May-26 18:00N 01°16' E 104°09'612.2
2018-May-26 17:30N 01°17' E 104°15'611.9
2018-May-26 17:00N 01°19' E 104°20'713.1
2018-May-26 16:30N 01°24' E 104°25'712.7
2018-May-26 15:58N 01°28' E 104°30'  
2018-May-21 12:18N 01°13' E 103°57'311.5
2018-May-21 12:01N 01°12' E 103°54'5 8.8
2018-May-21 11:30N 01°11' E 103°49'2 5.0
2018-May-21 11:00N 01°13' E 103°48'0 0.3
2018-May-21 10:05N 01°14' E 103°48'0 0.0
2018-May-21 09:59N 01°14' E 103°48'0 0.1
2018-May-21 09:29N 01°13' E 103°48'0 0.1
2018-May-21 08:59N 01°13' E 103°48'0 0.1
2018-May-21 08:29N 01°13' E 103°48'0 0.0
2018-May-21 07:59N 01°13' E 103°48'0 0.0
2018-May-21 07:26N 01°13' E 103°48'0 0.2
2018-May-21 06:59N 01°13' E 103°48'0 0.0
2018-May-21 06:23N 01°13' E 103°48'0 0.2
2018-May-21 05:59N 01°13' E 103°48'0 0.1
2018-May-21 05:29N 01°13' E 103°48'0 0.0
2018-May-21 04:53N 01°13' E 103°48'0 0.0
2018-May-21 04:29N 01°13' E 103°48'0 0.0
2018-May-21 03:59N 01°13' E 103°48'0 0.0
2018-May-21 03:29N 01°13' E 103°48'0 0.1
2018-May-21 02:59N 01°13' E 103°48'0 0.0
2018-May-21 02:29N 01°13' E 103°48'0 0.1
2018-May-21 01:57N 01°13' E 103°48'0 0.3
2018-May-21 01:30N 01°13' E 103°48'2 3.4
2018-May-21 01:00N 01°14' E 103°47'510.0
2018-May-21 00:31N 01°13' E 103°42'611.2
2018-May-20 23:59N 01°13' E 103°36'3 5.9
2018-May-20 23:30N 01°11' E 103°33'3 6.2
2018-May-20 23:00N 01°11' E 103°30'5 9.9
2018-May-20 22:30N 01°11' E 103°26'510.3
2018-May-20 22:00N 01°14' E 103°21'5 9.7
2018-May-20 21:30N 01°17' E 103°18'5 9.2
2018-May-20 20:59N 01°20' E 103°14'4 8.2
2018-May-20 20:29N 01°23' E 103°11'  

Dump ship's entire track history